sensor_id;sensor_type;location;lat;lon;timestamp;P1;durP1;ratioP1;P2;durP2;ratioP2
36799;SDS011;22752;51.960;5.886;2023-03-19T00:01:07;1.20;;;1.10;;
36799;SDS011;22752;51.960;5.886;2023-03-19T00:03:33;1.38;;;1.00;;
36799;SDS011;22752;51.960;5.886;2023-03-19T00:05:59;3.63;;;1.38;;
36799;SDS011;22752;51.960;5.886;2023-03-19T00:08:25;1.73;;;1.30;;
36799;SDS011;22752;51.960;5.886;2023-03-19T00:10:51;2.72;;;1.30;;
36799;SDS011;22752;51.960;5.886;2023-03-19T00:13:17;1.90;;;1.20;;
36799;SDS011;22752;51.960;5.886;2023-03-19T00:15:43;3.83;;;1.25;;
36799;SDS011;22752;51.960;5.886;2023-03-19T00:18:09;1.10;;;1.00;;
36799;SDS011;22752;51.960;5.886;2023-03-19T00:20:35;1.75;;;1.10;;
36799;SDS011;22752;51.960;5.886;2023-03-19T00:23:00;2.55;;;1.08;;
36799;SDS011;22752;51.960;5.886;2023-03-19T00:25:26;2.17;;;1.30;;
36799;SDS011;22752;51.960;5.886;2023-03-19T00:27:52;3.88;;;1.25;;
36799;SDS011;22752;51.960;5.886;2023-03-19T00:30:19;1.90;;;1.15;;
36799;SDS011;22752;51.960;5.886;2023-03-19T00:32:46;1.52;;;1.00;;
36799;SDS011;22752;51.960;5.886;2023-03-19T00:35:12;2.92;;;1.52;;
36799;SDS011;22752;51.960;5.886;2023-03-19T00:37:39;1.90;;;1.17;;
36799;SDS011;22752;51.960;5.886;2023-03-19T00:40:05;2.28;;;1.40;;
36799;SDS011;22752;51.960;5.886;2023-03-19T00:42:31;2.47;;;1.45;;
36799;SDS011;22752;51.960;5.886;2023-03-19T00:44:57;2.15;;;1.60;;
36799;SDS011;22752;51.960;5.886;2023-03-19T00:47:23;2.13;;;1.58;;
36799;SDS011;22752;51.960;5.886;2023-03-19T00:49:49;2.55;;;1.60;;
36799;SDS011;22752;51.960;5.886;2023-03-19T00:52:15;2.17;;;1.58;;
36799;SDS011;22752;51.960;5.886;2023-03-19T00:54:41;2.90;;;1.80;;
36799;SDS011;22752;51.960;5.886;2023-03-19T00:57:06;2.63;;;1.90;;
36799;SDS011;22752;51.960;5.886;2023-03-19T00:59:32;2.13;;;1.77;;
36799;SDS011;22752;51.960;5.886;2023-03-19T01:01:58;2.45;;;1.60;;
36799;SDS011;22752;51.960;5.886;2023-03-19T01:04:24;3.38;;;2.35;;
36799;SDS011;22752;51.960;5.886;2023-03-19T01:06:49;2.05;;;1.70;;
36799;SDS011;22752;51.960;5.886;2023-03-19T01:09:15;3.50;;;1.85;;
36799;SDS011;22752;51.960;5.886;2023-03-19T01:11:41;2.53;;;1.80;;
36799;SDS011;22752;51.960;5.886;2023-03-19T01:14:07;1.73;;;1.17;;
36799;SDS011;22752;51.960;5.886;2023-03-19T01:16:34;3.15;;;1.60;;
36799;SDS011;22752;51.960;5.886;2023-03-19T01:19:00;6.95;;;1.80;;
36799;SDS011;22752;51.960;5.886;2023-03-19T01:21:26;2.40;;;1.50;;
36799;SDS011;22752;51.960;5.886;2023-03-19T01:23:55;2.05;;;1.50;;
36799;SDS011;22752;51.960;5.886;2023-03-19T01:26:21;2.13;;;1.40;;
36799;SDS011;22752;51.960;5.886;2023-03-19T01:28:47;1.70;;;1.15;;
36799;SDS011;22752;51.960;5.886;2023-03-19T01:31:12;2.28;;;1.40;;
36799;SDS011;22752;51.960;5.886;2023-03-19T01:33:38;2.15;;;1.30;;
36799;SDS011;22752;51.960;5.886;2023-03-19T01:36:04;4.05;;;1.60;;
36799;SDS011;22752;51.960;5.886;2023-03-19T01:38:30;3.00;;;1.50;;
36799;SDS011;22752;51.960;5.886;2023-03-19T01:40:56;2.20;;;1.60;;
36799;SDS011;22752;51.960;5.886;2023-03-19T01:43:26;2.08;;;1.70;;
36799;SDS011;22752;51.960;5.886;2023-03-19T01:46:36;2.47;;;1.60;;
36799;SDS011;22752;51.960;5.886;2023-03-19T01:48:52;5.63;;;1.80;;
36799;SDS011;22752;51.960;5.886;2023-03-19T01:51:24;2.10;;;1.65;;
36799;SDS011;22752;51.960;5.886;2023-03-19T01:53:57;3.22;;;1.60;;
36799;SDS011;22752;51.960;5.886;2023-03-19T01:56:31;3.60;;;1.70;;
36799;SDS011;22752;51.960;5.886;2023-03-19T01:59:18;4.70;;;1.95;;
36799;SDS011;22752;51.960;5.886;2023-03-19T02:02:03;1.67;;;1.50;;
36799;SDS011;22752;51.960;5.886;2023-03-19T02:04:37;2.20;;;1.73;;
36799;SDS011;22752;51.960;5.886;2023-03-19T02:07:04;1.88;;;1.65;;
36799;SDS011;22752;51.960;5.886;2023-03-19T02:09:31;2.60;;;1.87;;
36799;SDS011;22752;51.960;5.886;2023-03-19T02:11:58;2.67;;;1.80;;
36799;SDS011;22752;51.960;5.886;2023-03-19T02:14:25;2.50;;;1.67;;
36799;SDS011;22752;51.960;5.886;2023-03-19T02:16:51;3.25;;;1.80;;
36799;SDS011;22752;51.960;5.886;2023-03-19T02:19:27;2.65;;;1.80;;
36799;SDS011;22752;51.960;5.886;2023-03-19T02:22:13;2.40;;;1.77;;
36799;SDS011;22752;51.960;5.886;2023-03-19T02:25:29;2.72;;;1.63;;
36799;SDS011;22752;51.960;5.886;2023-03-19T02:27:35;2.13;;;1.73;;
36799;SDS011;22752;51.960;5.886;2023-03-19T02:30:15;4.73;;;2.27;;
36799;SDS011;22752;51.960;5.886;2023-03-19T02:32:46;4.85;;;2.30;;
36799;SDS011;22752;51.960;5.886;2023-03-19T02:35:12;3.42;;;2.38;;
36799;SDS011;22752;51.960;5.886;2023-03-19T02:37:38;3.47;;;1.90;;
36799;SDS011;22752;51.960;5.886;2023-03-19T02:40:05;5.17;;;2.60;;
36799;SDS011;22752;51.960;5.886;2023-03-19T02:42:35;3.03;;;2.30;;
36799;SDS011;22752;51.960;5.886;2023-03-19T02:45:01;2.13;;;1.80;;
36799;SDS011;22752;51.960;5.886;2023-03-19T02:47:26;4.07;;;2.47;;
36799;SDS011;22752;51.960;5.886;2023-03-19T02:49:52;3.83;;;2.20;;
36799;SDS011;22752;51.960;5.886;2023-03-19T02:52:18;3.35;;;2.28;;
36799;SDS011;22752;51.960;5.886;2023-03-19T02:54:44;3.60;;;2.30;;
36799;SDS011;22752;51.960;5.886;2023-03-19T02:57:10;4.13;;;2.60;;
36799;SDS011;22752;51.960;5.886;2023-03-19T02:59:36;3.63;;;2.30;;
36799;SDS011;22752;51.960;5.886;2023-03-19T03:02:03;2.78;;;2.40;;
36799;SDS011;22752;51.960;5.886;2023-03-19T03:04:29;3.97;;;2.47;;
36799;SDS011;22752;51.960;5.886;2023-03-19T03:06:55;4.20;;;2.30;;
36799;SDS011;22752;51.960;5.886;2023-03-19T03:09:21;3.53;;;2.70;;
36799;SDS011;22752;51.960;5.886;2023-03-19T03:11:47;4.38;;;2.70;;
36799;SDS011;22752;51.960;5.886;2023-03-19T03:14:13;3.00;;;2.65;;
36799;SDS011;22752;51.960;5.886;2023-03-19T03:16:39;5.03;;;2.70;;
36799;SDS011;22752;51.960;5.886;2023-03-19T03:19:04;6.07;;;2.80;;
36799;SDS011;22752;51.960;5.886;2023-03-19T03:21:31;4.82;;;2.67;;
36799;SDS011;22752;51.960;5.886;2023-03-19T03:23:57;4.38;;;2.65;;
36799;SDS011;22752;51.960;5.886;2023-03-19T03:26:23;4.60;;;2.80;;
36799;SDS011;22752;51.960;5.886;2023-03-19T03:28:49;4.67;;;3.30;;
36799;SDS011;22752;51.960;5.886;2023-03-19T03:31:16;5.78;;;2.88;;
36799;SDS011;22752;51.960;5.886;2023-03-19T03:33:41;8.02;;;2.70;;
36799;SDS011;22752;51.960;5.886;2023-03-19T03:36:07;4.38;;;3.15;;
36799;SDS011;22752;51.960;5.886;2023-03-19T03:38:33;5.00;;;2.92;;
36799;SDS011;22752;51.960;5.886;2023-03-19T03:40:58;4.63;;;3.00;;
36799;SDS011;22752;51.960;5.886;2023-03-19T03:43:24;4.53;;;3.33;;
36799;SDS011;22752;51.960;5.886;2023-03-19T03:45:50;4.68;;;3.08;;
36799;SDS011;22752;51.960;5.886;2023-03-19T03:48:16;4.63;;;3.40;;
36799;SDS011;22752;51.960;5.886;2023-03-19T03:50:41;3.92;;;3.35;;
36799;SDS011;22752;51.960;5.886;2023-03-19T03:53:07;4.18;;;3.38;;
36799;SDS011;22752;51.960;5.886;2023-03-19T03:55:34;4.45;;;3.65;;
36799;SDS011;22752;51.960;5.886;2023-03-19T03:58:00;4.90;;;3.13;;
36799;SDS011;22752;51.960;5.886;2023-03-19T04:00:26;5.80;;;3.53;;
36799;SDS011;22752;51.960;5.886;2023-03-19T04:02:52;3.78;;;2.97;;
36799;SDS011;22752;51.960;5.886;2023-03-19T04:05:18;4.23;;;3.60;;
36799;SDS011;22752;51.960;5.886;2023-03-19T04:07:44;5.78;;;3.75;;
36799;SDS011;22752;51.960;5.886;2023-03-19T04:10:10;3.30;;;3.00;;
36799;SDS011;22752;51.960;5.886;2023-03-19T04:12:36;4.82;;;3.50;;
36799;SDS011;22752;51.960;5.886;2023-03-19T04:15:04;4.82;;;3.55;;
36799;SDS011;22752;51.960;5.886;2023-03-19T04:17:31;4.35;;;3.10;;
36799;SDS011;22752;51.960;5.886;2023-03-19T04:19:57;4.43;;;3.72;;
36799;SDS011;22752;51.960;5.886;2023-03-19T04:22:23;5.53;;;4.10;;
36799;SDS011;22752;51.960;5.886;2023-03-19T04:24:49;5.68;;;4.28;;
36799;SDS011;22752;51.960;5.886;2023-03-19T04:27:15;6.23;;;4.30;;
36799;SDS011;22752;51.960;5.886;2023-03-19T04:29:40;5.40;;;3.77;;
36799;SDS011;22752;51.960;5.886;2023-03-19T04:32:06;6.37;;;4.43;;
36799;SDS011;22752;51.960;5.886;2023-03-19T04:34:32;7.33;;;4.50;;
36799;SDS011;22752;51.960;5.886;2023-03-19T04:36:57;6.37;;;4.53;;
36799;SDS011;22752;51.960;5.886;2023-03-19T04:39:23;6.85;;;4.60;;
36799;SDS011;22752;51.960;5.886;2023-03-19T04:41:50;5.47;;;3.97;;
36799;SDS011;22752;51.960;5.886;2023-03-19T04:44:15;7.37;;;4.83;;
36799;SDS011;22752;51.960;5.886;2023-03-19T04:46:41;5.60;;;4.40;;
36799;SDS011;22752;51.960;5.886;2023-03-19T04:49:09;6.60;;;4.73;;
36799;SDS011;22752;51.960;5.886;2023-03-19T04:51:35;6.40;;;5.63;;
36799;SDS011;22752;51.960;5.886;2023-03-19T04:54:01;7.10;;;5.47;;
36799;SDS011;22752;51.960;5.886;2023-03-19T04:56:27;8.93;;;6.27;;
36799;SDS011;22752;51.960;5.886;2023-03-19T04:58:53;9.70;;;6.30;;
36799;SDS011;22752;51.960;5.886;2023-03-19T05:01:19;8.60;;;7.23;;
36799;SDS011;22752;51.960;5.886;2023-03-19T05:03:44;8.00;;;6.67;;
36799;SDS011;22752;51.960;5.886;2023-03-19T05:06:10;11.23;;;8.60;;
36799;SDS011;22752;51.960;5.886;2023-03-19T05:08:36;11.60;;;7.85;;
36799;SDS011;22752;51.960;5.886;2023-03-19T05:11:02;8.90;;;7.97;;
36799;SDS011;22752;51.960;5.886;2023-03-19T05:13:27;9.00;;;6.90;;
36799;SDS011;22752;51.960;5.886;2023-03-19T05:15:53;10.20;;;7.68;;
36799;SDS011;22752;51.960;5.886;2023-03-19T05:18:19;10.00;;;8.80;;
36799;SDS011;22752;51.960;5.886;2023-03-19T05:20:45;11.75;;;9.55;;
36799;SDS011;22752;51.960;5.886;2023-03-19T05:23:11;10.97;;;8.97;;
36799;SDS011;22752;51.960;5.886;2023-03-19T05:25:37;12.13;;;9.10;;
36799;SDS011;22752;51.960;5.886;2023-03-19T05:28:04;11.20;;;9.30;;
36799;SDS011;22752;51.960;5.886;2023-03-19T05:30:31;13.13;;;9.53;;
36799;SDS011;22752;51.960;5.886;2023-03-19T05:32:57;12.02;;;9.98;;
36799;SDS011;22752;51.960;5.886;2023-03-19T05:35:24;14.33;;;11.20;;
36799;SDS011;22752;51.960;5.886;2023-03-19T05:37:51;15.37;;;12.57;;
36799;SDS011;22752;51.960;5.886;2023-03-19T05:40:17;15.10;;;13.03;;
36799;SDS011;22752;51.960;5.886;2023-03-19T05:42:43;15.97;;;12.33;;
36799;SDS011;22752;51.960;5.886;2023-03-19T05:45:09;16.33;;;14.55;;
36799;SDS011;22752;51.960;5.886;2023-03-19T05:47:35;19.60;;;15.63;;
36799;SDS011;22752;51.960;5.886;2023-03-19T05:50:01;20.58;;;15.90;;
36799;SDS011;22752;51.960;5.886;2023-03-19T05:52:27;16.73;;;14.13;;
36799;SDS011;22752;51.960;5.886;2023-03-19T05:54:52;16.47;;;13.90;;
36799;SDS011;22752;51.960;5.886;2023-03-19T05:57:18;16.40;;;13.35;;
36799;SDS011;22752;51.960;5.886;2023-03-19T05:59:44;16.07;;;13.97;;
36799;SDS011;22752;51.960;5.886;2023-03-19T06:02:10;18.13;;;14.80;;
36799;SDS011;22752;51.960;5.886;2023-03-19T06:04:35;16.77;;;14.60;;
36799;SDS011;22752;51.960;5.886;2023-03-19T06:07:01;15.90;;;13.25;;
36799;SDS011;22752;51.960;5.886;2023-03-19T06:09:28;19.42;;;14.73;;
36799;SDS011;22752;51.960;5.886;2023-03-19T06:11:53;21.50;;;17.63;;
36799;SDS011;22752;51.960;5.886;2023-03-19T06:14:19;20.83;;;17.53;;
36799;SDS011;22752;51.960;5.886;2023-03-19T06:16:45;20.47;;;17.07;;
36799;SDS011;22752;51.960;5.886;2023-03-19T06:19:10;21.17;;;17.03;;
36799;SDS011;22752;51.960;5.886;2023-03-19T06:21:36;20.93;;;17.10;;
36799;SDS011;22752;51.960;5.886;2023-03-19T06:24:02;21.58;;;15.82;;
36799;SDS011;22752;51.960;5.886;2023-03-19T06:26:28;18.63;;;15.73;;
36799;SDS011;22752;51.960;5.886;2023-03-19T06:28:53;18.80;;;16.20;;
36799;SDS011;22752;51.960;5.886;2023-03-19T06:31:19;16.75;;;14.93;;
36799;SDS011;22752;51.960;5.886;2023-03-19T06:33:45;18.27;;;15.15;;
36799;SDS011;22752;51.960;5.886;2023-03-19T06:36:11;18.93;;;16.33;;
36799;SDS011;22752;51.960;5.886;2023-03-19T06:38:36;20.13;;;14.43;;
36799;SDS011;22752;51.960;5.886;2023-03-19T06:41:02;16.98;;;13.63;;
36799;SDS011;22752;51.960;5.886;2023-03-19T06:43:28;16.85;;;13.30;;
36799;SDS011;22752;51.960;5.886;2023-03-19T06:45:55;15.43;;;13.23;;
36799;SDS011;22752;51.960;5.886;2023-03-19T06:48:20;17.45;;;14.75;;
36799;SDS011;22752;51.960;5.886;2023-03-19T06:50:46;18.08;;;14.70;;
36799;SDS011;22752;51.960;5.886;2023-03-19T06:53:13;16.55;;;13.80;;
36799;SDS011;22752;51.960;5.886;2023-03-19T06:55:39;15.65;;;13.65;;
36799;SDS011;22752;51.960;5.886;2023-03-19T06:58:05;17.52;;;13.23;;
36799;SDS011;22752;51.960;5.886;2023-03-19T07:00:31;14.03;;;11.50;;
36799;SDS011;22752;51.960;5.886;2023-03-19T07:02:57;18.23;;;12.82;;
36799;SDS011;22752;51.960;5.886;2023-03-19T07:05:24;13.02;;;11.07;;
36799;SDS011;22752;51.960;5.886;2023-03-19T07:07:49;13.70;;;11.30;;
36799;SDS011;22752;51.960;5.886;2023-03-19T07:10:19;11.75;;;9.98;;
36799;SDS011;22752;51.960;5.886;2023-03-19T07:12:45;13.77;;;11.73;;
36799;SDS011;22752;51.960;5.886;2023-03-19T07:15:11;13.73;;;10.97;;
36799;SDS011;22752;51.960;5.886;2023-03-19T07:17:37;12.35;;;10.07;;
36799;SDS011;22752;51.960;5.886;2023-03-19T07:20:02;12.35;;;11.00;;
36799;SDS011;22752;51.960;5.886;2023-03-19T07:22:28;14.45;;;11.23;;
36799;SDS011;22752;51.960;5.886;2023-03-19T07:24:54;14.93;;;11.13;;
36799;SDS011;22752;51.960;5.886;2023-03-19T07:27:20;15.55;;;10.02;;
36799;SDS011;22752;51.960;5.886;2023-03-19T07:29:45;13.50;;;8.80;;
36799;SDS011;22752;51.960;5.886;2023-03-19T07:32:11;10.65;;;8.10;;
36799;SDS011;22752;51.960;5.886;2023-03-19T07:34:38;9.82;;;7.32;;
36799;SDS011;22752;51.960;5.886;2023-03-19T07:37:04;9.68;;;7.15;;
36799;SDS011;22752;51.960;5.886;2023-03-19T07:39:30;12.82;;;8.70;;
36799;SDS011;22752;51.960;5.886;2023-03-19T07:41:56;10.30;;;9.20;;
36799;SDS011;22752;51.960;5.886;2023-03-19T07:44:21;11.70;;;8.93;;
36799;SDS011;22752;51.960;5.886;2023-03-19T07:46:47;13.15;;;9.15;;
36799;SDS011;22752;51.960;5.886;2023-03-19T07:49:13;11.70;;;9.25;;
36799;SDS011;22752;51.960;5.886;2023-03-19T07:51:39;10.10;;;9.02;;
36799;SDS011;22752;51.960;5.886;2023-03-19T07:54:04;11.02;;;8.88;;
36799;SDS011;22752;51.960;5.886;2023-03-19T07:56:30;13.45;;;8.43;;
36799;SDS011;22752;51.960;5.886;2023-03-19T07:58:56;11.20;;;8.57;;
36799;SDS011;22752;51.960;5.886;2023-03-19T08:01:23;12.65;;;8.45;;
36799;SDS011;22752;51.960;5.886;2023-03-19T08:03:50;11.23;;;8.25;;
36799;SDS011;22752;51.960;5.886;2023-03-19T08:06:16;12.63;;;8.18;;
36799;SDS011;22752;51.960;5.886;2023-03-19T08:08:42;12.95;;;8.57;;
36799;SDS011;22752;51.960;5.886;2023-03-19T08:11:07;10.93;;;8.68;;
36799;SDS011;22752;51.960;5.886;2023-03-19T08:13:34;12.07;;;9.20;;
36799;SDS011;22752;51.960;5.886;2023-03-19T08:16:00;8.75;;;7.82;;
36799;SDS011;22752;51.960;5.886;2023-03-19T08:18:25;12.77;;;8.80;;
36799;SDS011;22752;51.960;5.886;2023-03-19T08:20:51;10.07;;;7.65;;
36799;SDS011;22752;51.960;5.886;2023-03-19T08:23:17;14.77;;;9.02;;
36799;SDS011;22752;51.960;5.886;2023-03-19T08:25:43;8.93;;;8.02;;
36799;SDS011;22752;51.960;5.886;2023-03-19T08:28:09;14.15;;;8.32;;
36799;SDS011;22752;51.960;5.886;2023-03-19T08:30:35;11.13;;;8.63;;
36799;SDS011;22752;51.960;5.886;2023-03-19T08:33:01;11.82;;;7.93;;
36799;SDS011;22752;51.960;5.886;2023-03-19T08:35:27;10.70;;;7.10;;
36799;SDS011;22752;51.960;5.886;2023-03-19T08:37:54;13.63;;;8.20;;
36799;SDS011;22752;51.960;5.886;2023-03-19T08:40:20;12.60;;;7.65;;
36799;SDS011;22752;51.960;5.886;2023-03-19T08:42:47;11.13;;;7.80;;
36799;SDS011;22752;51.960;5.886;2023-03-19T08:45:13;12.32;;;7.03;;
36799;SDS011;22752;51.960;5.886;2023-03-19T08:47:40;11.82;;;6.78;;
36799;SDS011;22752;51.960;5.886;2023-03-19T08:50:06;9.15;;;6.90;;
36799;SDS011;22752;51.960;5.886;2023-03-19T08:52:32;10.93;;;6.70;;
36799;SDS011;22752;51.960;5.886;2023-03-19T08:54:58;11.82;;;6.57;;
36799;SDS011;22752;51.960;5.886;2023-03-19T08:57:24;12.30;;;7.63;;
36799;SDS011;22752;51.960;5.886;2023-03-19T08:59:53;11.43;;;6.93;;
36799;SDS011;22752;51.960;5.886;2023-03-19T09:02:18;10.73;;;6.25;;
36799;SDS011;22752;51.960;5.886;2023-03-19T09:04:44;10.10;;;6.18;;
36799;SDS011;22752;51.960;5.886;2023-03-19T09:07:10;12.30;;;7.07;;
36799;SDS011;22752;51.960;5.886;2023-03-19T09:09:37;12.63;;;7.60;;
36799;SDS011;22752;51.960;5.886;2023-03-19T09:12:04;14.55;;;7.90;;
36799;SDS011;22752;51.960;5.886;2023-03-19T09:14:31;15.13;;;7.50;;
36799;SDS011;22752;51.960;5.886;2023-03-19T09:16:57;14.30;;;8.48;;
36799;SDS011;22752;51.960;5.886;2023-03-19T09:19:23;12.55;;;9.85;;
36799;SDS011;22752;51.960;5.886;2023-03-19T09:21:48;14.85;;;10.07;;
36799;SDS011;22752;51.960;5.886;2023-03-19T09:24:14;13.45;;;9.98;;
36799;SDS011;22752;51.960;5.886;2023-03-19T09:26:40;16.27;;;10.77;;
36799;SDS011;22752;51.960;5.886;2023-03-19T09:29:06;13.35;;;10.23;;
36799;SDS011;22752;51.960;5.886;2023-03-19T09:31:33;14.07;;;10.75;;
36799;SDS011;22752;51.960;5.886;2023-03-19T09:33:58;15.68;;;10.23;;
36799;SDS011;22752;51.960;5.886;2023-03-19T09:36:24;15.60;;;12.02;;
36799;SDS011;22752;51.960;5.886;2023-03-19T09:38:50;18.23;;;12.77;;
36799;SDS011;22752;51.960;5.886;2023-03-19T09:43:57;17.75;;;14.50;;
36799;SDS011;22752;51.960;5.886;2023-03-19T09:46:38;16.13;;;13.38;;
36799;SDS011;22752;51.960;5.886;2023-03-19T09:51:48;17.95;;;13.02;;
36799;SDS011;22752;51.960;5.886;2023-03-19T09:56:45;14.75;;;13.00;;
36799;SDS011;22752;51.960;5.886;2023-03-19T09:59:11;18.50;;;13.30;;
36799;SDS011;22752;51.960;5.886;2023-03-19T10:01:36;16.80;;;14.10;;
36799;SDS011;22752;51.960;5.886;2023-03-19T10:06:51;18.45;;;14.00;;
36799;SDS011;22752;51.960;5.886;2023-03-19T10:09:32;16.08;;;13.23;;
36799;SDS011;22752;51.960;5.886;2023-03-19T10:17:51;25.10;;;16.02;;
36799;SDS011;22752;51.960;5.886;2023-03-19T10:25:55;24.02;;;15.85;;
36799;SDS011;22752;51.960;5.886;2023-03-19T10:28:24;21.58;;;17.30;;
36799;SDS011;22752;51.960;5.886;2023-03-19T10:31:00;19.17;;;15.68;;
36799;SDS011;22752;51.960;5.886;2023-03-19T10:33:52;22.42;;;16.17;;
36799;SDS011;22752;51.960;5.886;2023-03-19T10:36:38;20.38;;;15.27;;
36799;SDS011;22752;51.960;5.886;2023-03-19T10:39:04;18.73;;;15.88;;
36799;SDS011;22752;51.960;5.886;2023-03-19T10:47:24;18.92;;;15.95;;
36799;SDS011;22752;51.960;5.886;2023-03-19T10:49:50;21.13;;;16.25;;
36799;SDS011;22752;51.960;5.886;2023-03-19T10:52:29;21.67;;;14.98;;
36799;SDS011;22752;51.960;5.886;2023-03-19T10:55:01;22.15;;;17.02;;
36799;SDS011;22752;51.960;5.886;2023-03-19T10:57:28;20.52;;;14.30;;
36799;SDS011;22752;51.960;5.886;2023-03-19T10:59:55;20.98;;;17.35;;
36799;SDS011;22752;51.960;5.886;2023-03-19T11:02:30;19.33;;;15.13;;
36799;SDS011;22752;51.960;5.886;2023-03-19T11:07:38;20.85;;;17.10;;
36799;SDS011;22752;51.960;5.886;2023-03-19T11:10:08;19.85;;;15.02;;
36799;SDS011;22752;51.960;5.886;2023-03-19T11:12:44;19.73;;;15.77;;
36799;SDS011;22752;51.960;5.886;2023-03-19T11:15:25;15.57;;;13.40;;
36799;SDS011;22752;51.960;5.886;2023-03-19T11:17:57;19.70;;;16.10;;
36799;SDS011;22752;51.960;5.886;2023-03-19T11:25:35;17.60;;;12.73;;
36799;SDS011;22752;51.960;5.886;2023-03-19T11:28:15;22.73;;;15.38;;
36799;SDS011;22752;51.960;5.886;2023-03-19T11:38:52;20.40;;;14.13;;
36799;SDS011;22752;51.960;5.886;2023-03-19T11:50:13;20.60;;;15.18;;
36799;SDS011;22752;51.960;5.886;2023-03-19T11:58:01;20.17;;;15.43;;
36799;SDS011;22752;51.960;5.886;2023-03-19T12:00:57;20.15;;;15.50;;
36799;SDS011;22752;51.960;5.886;2023-03-19T12:11:24;32.47;;;20.30;;
36799;SDS011;22752;51.960;5.886;2023-03-19T12:16:33;30.58;;;18.50;;
36799;SDS011;22752;51.960;5.886;2023-03-19T12:19:22;30.83;;;18.67;;
36799;SDS011;22752;51.960;5.886;2023-03-19T12:22:12;33.22;;;20.15;;
36799;SDS011;22752;51.960;5.886;2023-03-19T12:35:58;26.92;;;16.98;;
36799;SDS011;22752;51.960;5.886;2023-03-19T12:38:34;32.83;;;17.40;;
36799;SDS011;22752;51.960;5.886;2023-03-19T12:41:30;24.00;;;15.57;;
36799;SDS011;22752;51.960;5.886;2023-03-19T12:44:14;28.48;;;16.48;;
36799;SDS011;22752;51.960;5.886;2023-03-19T12:54:54;20.67;;;13.75;;
36799;SDS011;22752;51.960;5.886;2023-03-19T12:57:36;23.98;;;13.52;;
36799;SDS011;22752;51.960;5.886;2023-03-19T13:05:43;20.38;;;12.50;;
36799;SDS011;22752;51.960;5.886;2023-03-19T13:08:29;26.45;;;14.35;;
36799;SDS011;22752;51.960;5.886;2023-03-19T13:11:01;19.48;;;12.93;;
36799;SDS011;22752;51.960;5.886;2023-03-19T13:21:37;23.23;;;13.13;;
36799;SDS011;22752;51.960;5.886;2023-03-19T13:24:22;24.92;;;14.23;;
36799;SDS011;22752;51.960;5.886;2023-03-19T13:26:55;22.23;;;13.20;;
36799;SDS011;22752;51.960;5.886;2023-03-19T13:29:25;17.88;;;12.65;;
36799;SDS011;22752;51.960;5.886;2023-03-19T13:32:00;18.85;;;12.40;;
36799;SDS011;22752;51.960;5.886;2023-03-19T13:34:33;21.33;;;13.00;;
36799;SDS011;22752;51.960;5.886;2023-03-19T13:39:45;22.33;;;14.50;;
36799;SDS011;22752;51.960;5.886;2023-03-19T13:45:32;21.00;;;13.48;;
36799;SDS011;22752;51.960;5.886;2023-03-19T13:48:08;20.77;;;12.38;;
36799;SDS011;22752;51.960;5.886;2023-03-19T13:51:33;18.23;;;10.88;;
36799;SDS011;22752;51.960;5.886;2023-03-19T13:53:38;18.15;;;11.13;;
36799;SDS011;22752;51.960;5.886;2023-03-19T13:56:10;16.60;;;10.27;;
36799;SDS011;22752;51.960;5.886;2023-03-19T13:58:45;14.60;;;9.23;;
36799;SDS011;22752;51.960;5.886;2023-03-19T14:03:58;13.00;;;8.35;;
36799;SDS011;22752;51.960;5.886;2023-03-19T14:14:44;15.43;;;9.25;;
36799;SDS011;22752;51.960;5.886;2023-03-19T14:17:15;12.23;;;7.57;;
36799;SDS011;22752;51.960;5.886;2023-03-19T14:19:46;12.15;;;7.70;;
36799;SDS011;22752;51.960;5.886;2023-03-19T14:25:10;11.20;;;7.22;;
36799;SDS011;22752;51.960;5.886;2023-03-19T14:28:08;16.45;;;9.02;;
36799;SDS011;22752;51.960;5.886;2023-03-19T14:30:37;13.32;;;7.90;;
36799;SDS011;22752;51.960;5.886;2023-03-19T14:33:23;15.25;;;8.27;;
36799;SDS011;22752;51.960;5.886;2023-03-19T14:35:53;14.50;;;8.93;;
36799;SDS011;22752;51.960;5.886;2023-03-19T14:38:27;13.88;;;9.23;;
36799;SDS011;22752;51.960;5.886;2023-03-19T14:41:27;15.68;;;8.10;;
36799;SDS011;22752;51.960;5.886;2023-03-19T14:47:03;15.45;;;10.13;;
36799;SDS011;22752;51.960;5.886;2023-03-19T14:53:09;14.07;;;9.75;;
36799;SDS011;22752;51.960;5.886;2023-03-19T14:55:34;17.58;;;10.70;;
36799;SDS011;22752;51.960;5.886;2023-03-19T14:58:02;17.48;;;9.98;;
36799;SDS011;22752;51.960;5.886;2023-03-19T15:00:29;19.27;;;11.35;;
36799;SDS011;22752;51.960;5.886;2023-03-19T15:03:07;15.85;;;10.57;;
36799;SDS011;22752;51.960;5.886;2023-03-19T15:05:44;17.02;;;11.68;;
36799;SDS011;22752;51.960;5.886;2023-03-19T15:08:14;15.20;;;10.95;;
36799;SDS011;22752;51.960;5.886;2023-03-19T15:19:25;20.55;;;13.85;;
36799;SDS011;22752;51.960;5.886;2023-03-19T15:22:03;20.08;;;12.65;;
36799;SDS011;22752;51.960;5.886;2023-03-19T15:24:35;21.23;;;12.88;;
36799;SDS011;22752;51.960;5.886;2023-03-19T15:27:01;24.83;;;14.30;;
36799;SDS011;22752;51.960;5.886;2023-03-19T15:29:30;21.98;;;13.35;;
36799;SDS011;22752;51.960;5.886;2023-03-19T15:31:56;20.75;;;13.07;;
36799;SDS011;22752;51.960;5.886;2023-03-19T15:34:23;19.45;;;11.77;;
36799;SDS011;22752;51.960;5.886;2023-03-19T15:36:52;19.88;;;12.50;;
36799;SDS011;22752;51.960;5.886;2023-03-19T15:39:25;18.40;;;11.05;;
36799;SDS011;22752;51.960;5.886;2023-03-19T15:41:55;21.08;;;13.15;;
36799;SDS011;22752;51.960;5.886;2023-03-19T15:44:26;17.45;;;11.68;;
36799;SDS011;22752;51.960;5.886;2023-03-19T15:46:57;19.48;;;12.40;;
36799;SDS011;22752;51.960;5.886;2023-03-19T15:49:27;20.05;;;12.30;;
36799;SDS011;22752;51.960;5.886;2023-03-19T15:52:01;17.90;;;11.02;;
36799;SDS011;22752;51.960;5.886;2023-03-19T15:54:31;17.90;;;11.95;;
36799;SDS011;22752;51.960;5.886;2023-03-19T15:56:57;18.38;;;11.57;;
36799;SDS011;22752;51.960;5.886;2023-03-19T15:59:22;16.13;;;11.45;;
36799;SDS011;22752;51.960;5.886;2023-03-19T16:01:56;19.20;;;11.30;;
36799;SDS011;22752;51.960;5.886;2023-03-19T16:04:24;17.55;;;10.70;;
36799;SDS011;22752;51.960;5.886;2023-03-19T16:06:53;14.65;;;9.90;;
36799;SDS011;22752;51.960;5.886;2023-03-19T16:09:26;16.80;;;10.45;;
36799;SDS011;22752;51.960;5.886;2023-03-19T16:11:57;16.08;;;10.88;;
36799;SDS011;22752;51.960;5.886;2023-03-19T16:14:25;15.15;;;10.85;;
36799;SDS011;22752;51.960;5.886;2023-03-19T16:16:59;16.00;;;11.13;;
36799;SDS011;22752;51.960;5.886;2023-03-19T16:19:31;17.90;;;10.90;;
36799;SDS011;22752;51.960;5.886;2023-03-19T16:21:59;15.88;;;9.77;;
36799;SDS011;22752;51.960;5.886;2023-03-19T16:24:27;14.52;;;9.65;;
36799;SDS011;22752;51.960;5.886;2023-03-19T16:26:58;17.33;;;10.87;;
36799;SDS011;22752;51.960;5.886;2023-03-19T16:29:30;16.77;;;11.40;;
36799;SDS011;22752;51.960;5.886;2023-03-19T16:32:03;16.17;;;10.55;;
36799;SDS011;22752;51.960;5.886;2023-03-19T16:34:50;15.40;;;9.52;;
36799;SDS011;22752;51.960;5.886;2023-03-19T16:42:50;10.55;;;7.93;;
36799;SDS011;22752;51.960;5.886;2023-03-19T16:47:54;12.65;;;8.57;;
36799;SDS011;22752;51.960;5.886;2023-03-19T16:50:21;13.18;;;8.52;;
36799;SDS011;22752;51.960;5.886;2023-03-19T16:52:54;10.32;;;7.43;;
36799;SDS011;22752;51.960;5.886;2023-03-19T16:55:21;12.70;;;8.98;;
36799;SDS011;22752;51.960;5.886;2023-03-19T16:57:55;11.27;;;8.38;;
36799;SDS011;22752;51.960;5.886;2023-03-19T17:00:40;14.65;;;9.27;;
36799;SDS011;22752;51.960;5.886;2023-03-19T17:03:17;13.40;;;9.57;;
36799;SDS011;22752;51.960;5.886;2023-03-19T17:05:43;18.88;;;12.52;;
36799;SDS011;22752;51.960;5.886;2023-03-19T17:08:10;15.77;;;10.48;;